Time;durP1;ratioP1;P1;durP2;ratioP2;P2;SDS_P1;SDS_P2;PMS_P1;PMS_P2;Temp;Humidity;BMP_temperature;BMP_pressure;BME280_temperature;BME280_humidity;BME280_pressure;Samples;Min_cycle;Max_cycle;Signal;HPM_P1;HPM_P2
2022/03/22 00:01:15;;;;;;;90.03;52.55;;;128.10;1971.20;;;;;;4903952;29;20020;-82
2022/03/22 00:03:45;;;;;;;68.22;40.55;;;128.10;1945.60;;;;;;4888925;29;20029;-84
2022/03/22 00:06:13;;;;;;;77.15;46.33;;;128.10;1945.60;;;;;;4904019;29;20036;-83
2022/03/22 00:08:51;;;;;;;150.52;84.50;;;128.60;1945.60;;;;;;4904286;29;20025;-79
2022/03/22 00:11:18;;;;;;;111.40;64.05;;;128.00;1971.20;;;;;;4903766;29;20064;-84
2022/03/22 00:13:46;;;;;;;113.35;61.38;;;103.30;1945.60;;;;;;4905524;29;20025;-84
2022/03/22 00:16:13;;;;;;;93.35;53.88;;;128.00;1971.20;;;;;;4889684;29;20021;-85
2022/03/22 00:18:41;;;;;;;73.30;44.50;;;103.30;1945.60;;;;;;4903948;29;20108;-81
2022/03/22 00:21:26;;;;;;;86.50;51.50;;;103.20;1945.60;;;;;;4900087;29;20040;-84
2022/03/22 00:23:54;;;;;;;117.88;66.68;;;103.30;1945.60;;;;;;4903056;29;20044;-83
2022/03/22 00:26:23;;;;;;;143.13;78.70;;;103.20;1945.60;;;;;;4904271;29;20111;-85
2022/03/22 00:28:57;;;;;;;165.45;92.72;;;103.20;1971.20;;;;;;4903298;29;20048;-86
2022/03/22 00:31:28;;;;;;;167.60;92.50;;;103.00;1971.20;;;;;;4888730;29;20056;-83
2022/03/22 00:34:00;;;;;;;78.40;43.83;;;103.00;1971.20;;;;;;4903435;29;20404;-82
2022/03/22 00:36:27;;;;;;;66.97;37.70;;;103.00;1971.20;;;;;;4903327;29;20040;-80
2022/03/22 00:39:19;;;;;;;79.32;47.17;;;103.00;1971.20;;;;;;4903276;29;20085;-82
2022/03/22 00:41:52;;;;;;;64.25;37.17;;;102.80;1996.80;;;;;;4902948;29;20036;-82
2022/03/22 00:44:22;;;;;;;65.88;38.42;;;102.80;1971.20;;;;;;4904503;29;20025;-82
2022/03/22 00:46:56;;;;;;;61.20;32.63;;;102.90;1971.20;;;;;;4891036;29;20080;-84
2022/03/22 00:49:22;;;;;;;47.92;28.52;;;102.80;1996.80;;;;;;4904939;29;20048;-84
2022/03/22 00:51:55;;;;;;;57.78;33.20;;;102.70;1996.80;;;;;;4923942;29;20032;-83
2022/03/22 00:54:26;;;;;;;70.50;40.45;;;102.80;1996.80;;;;;;4908028;29;20099;-81
2022/03/22 00:56:54;;;;;;;71.20;42.65;;;102.50;1996.80;;;;;;4906824;29;20039;-83
2022/03/22 01:02:58;;;;;;;80.68;48.42;;;77.60;2048.00;;;;;;4923238;29;20052;-83
2022/03/22 01:05:37;;;;;;;50.83;29.08;;;102.50;2048.00;;;;;;4922737;29;20466;-84
2022/03/22 01:08:56;;;;;;;54.47;32.78;;;102.40;2022.40;;;;;;4906179;29;20037;-82
2022/03/22 01:12:18;;;;;;;51.53;31.15;;;77.60;2048.00;;;;;;4868419;29;20030;-82
2022/03/22 01:15:47;;;;;;;44.78;26.75;;;77.60;2048.00;;;;;;4876875;29;20037;-82
2022/03/22 01:18:30;;;;;;;54.10;32.97;;;77.60;2048.00;;;;;;4886493;29;20476;-82
2022/03/22 01:21:41;;;;;;;67.35;39.03;;;77.60;2048.00;;;;;;4873296;29;20048;-83
2022/03/22 01:25:17;;;;;;;56.45;33.53;;;77.50;2073.60;;;;;;4857883;29;20036;-82
2022/03/22 01:28:18;;;;;;;50.75;32.78;;;77.60;2048.00;;;;;;4867059;29;20055;-82
2022/03/22 01:31:17;;;;;;;50.33;30.35;;;77.60;2048.00;;;;;;4851220;29;20034;-81
2022/03/22 01:33:56;;;;;;;71.78;37.63;;;77.70;2048.00;;;;;;4865654;29;20038;-83
2022/03/22 01:37:05;;;;;;;64.28;34.45;;;77.70;2048.00;;;;;;4838735;29;20058;-83
2022/03/22 01:39:37;;;;;;;56.63;35.25;;;77.20;2073.60;;;;;;4847882;29;20053;-81
2022/03/22 01:42:16;;;;;;;57.10;33.20;;;77.30;2073.60;;;;;;4869768;29;20526;-82
2022/03/22 01:45:09;;;;;;;55.92;30.98;;;77.30;2099.20;;;;;;4889047;29;20044;-80
2022/03/22 01:53:40;;;;;;;61.38;36.42;;;77.30;2099.20;;;;;;4925126;29;20056;-80
2022/03/22 01:56:28;;;;;;;68.38;39.03;;;77.50;2073.60;;;;;;4926839;29;20525;-80
2022/03/22 01:59:17;;;;;;;82.20;47.70;;;77.60;2073.60;;;;;;4928372;29;20042;-80
2022/03/22 02:07:23;;;;;;;72.40;41.13;;;77.10;2124.80;;;;;;4929599;29;20114;-81
2022/03/22 02:10:55;;;;;;;51.58;28.20;;;77.30;2124.80;;;;;;4912621;29;20028;-81
2022/03/22 02:13:47;;;;;;;36.35;19.88;;;76.90;2124.80;;;;;;4918403;29;20039;-80
2022/03/22 02:16:45;;;;;;;37.92;20.00;;;77.20;2124.80;;;;;;4928612;29;20063;-82
2022/03/22 02:20:13;;;;;;;48.47;24.52;;;77.10;2124.80;;;;;;4927663;29;20055;-81
2022/03/22 02:23:20;;;;;;;55.85;29.98;;;77.30;2124.80;;;;;;4900950;29;20056;-82
2022/03/22 02:26:13;;;;;;;46.63;24.52;;;77.40;2099.20;;;;;;4905629;29;20035;-82
2022/03/22 02:29:50;;;;;;;57.28;29.60;;;77.30;2099.20;;;;;;4925795;29;20028;-81
2022/03/22 02:33:17;;;;;;;84.70;37.97;;;77.30;2099.20;;;;;;4905537;29;20059;-82
2022/03/22 02:37:13;;;;;;;68.97;34.70;;;77.40;2099.20;;;;;;4888568;29;20025;-81
2022/03/22 02:40:18;;;;;;;52.42;28.02;;;77.40;2099.20;;;;;;4893427;29;20033;-79
2022/03/22 02:43:54;;;;;;;55.55;29.30;;;77.40;2099.20;;;;;;4865163;29;20084;-82
2022/03/22 02:47:06;;;;;;;59.73;30.30;;;77.30;2124.80;;;;;;4884349;29;20029;-82
2022/03/22 02:50:52;;;;;;;68.60;38.10;;;77.30;2099.20;;;;;;4897527;29;20325;-79
2022/03/22 02:57:47;;;;;;;72.63;37.30;;;77.10;2150.40;;;;;;4890604;29;20081;-79
2022/03/22 03:07:45;;;;;;;59.28;33.30;;;77.00;2124.80;;;;;;4782329;30;20042;-79
2022/03/22 03:21:45;;;;;;;98.10;49.13;;;51.90;2201.60;;;;;;4784471;30;20038;-81
2022/03/22 03:24:49;;;;;;;100.40;53.95;;;52.10;2201.60;;;;;;4769983;30;20035;-83
2022/03/22 03:28:24;;;;;;;88.50;49.10;;;52.10;2201.60;;;;;;4791728;30;20027;-81
2022/03/22 03:31:45;;;;;;;96.45;51.92;;;52.00;2201.60;;;;;;4803215;30;20081;-80
2022/03/22 03:49:25;;;;;;;102.90;54.13;;;51.90;2227.20;;;;;;4730671;30;20036;-81
2022/03/22 03:59:40;;;;;;;116.28;59.05;;;52.10;2201.60;;;;;;4773348;30;20039;-82
2022/03/22 04:06:28;;;;;;;156.60;69.82;;;52.00;2201.60;;;;;;4764728;30;20038;-82
2022/03/22 04:10:16;;;;;;;141.80;64.80;;;76.80;2201.60;;;;;;4762545;30;20032;-83
2022/03/22 04:13:29;;;;;;;79.85;45.40;;;76.80;2176.00;;;;;;4788008;29;20023;-82
2022/03/22 04:16:14;;;;;;;;;;;51.80;2201.60;;;;;;4817841;29;20039;-82
2022/03/22 04:19:58;;;;;;;114.40;55.25;;;52.00;2201.60;;;;;;4827247;29;19904;-82
2022/03/22 04:26:55;;;;;;;111.63;51.90;;;52.10;2201.60;;;;;;4849391;29;20076;-81
2022/03/22 04:33:11;;;;;;;90.40;45.75;;;52.00;2201.60;;;;;;4852016;29;20045;-82
2022/03/22 04:36:16;;;;;;;94.13;50.65;;;51.90;2227.20;;;;;;4815473;29;20046;-81
2022/03/22 04:39:29;;;;;;;112.65;59.20;;;52.10;2201.60;;;;;;4801636;29;20042;-83
2022/03/22 04:42:47;;;;;;;103.72;55.33;;;52.00;2201.60;;;;;;4806298;29;20030;-80
2022/03/22 04:45:25;;;;;;;119.03;60.65;;;51.70;2227.20;;;;;;4786190;29;20085;-81
2022/03/22 04:49:06;;;;;;;124.18;61.53;;;51.80;2227.20;;;;;;4816735;29;20421;-81
2022/03/22 05:09:01;;;;;;;114.72;60.95;;;51.70;2227.20;;;;;;4795379;29;20389;-81
2022/03/22 05:12:13;;;;;;;89.57;49.45;;;51.80;2227.20;;;;;;4812644;29;20062;-81
2022/03/22 05:15:41;;;;;;;86.10;47.40;;;51.90;2227.20;;;;;;4818111;29;20035;-80
2022/03/22 05:19:42;;;;;;;89.15;46.50;;;51.90;2227.20;;;;;;4818275;29;20027;-80
2022/03/22 05:23:09;;;;;;;90.55;51.17;;;52.00;2227.20;;;;;;4820352;29;20041;-80
2022/03/22 05:30:04;;;;;;;109.28;59.45;;;52.00;2227.20;;;;;;4808184;29;20059;-80
2022/03/22 05:33:49;;;;;;;125.65;65.30;;;51.90;2227.20;;;;;;4820004;29;20034;-80
2022/03/22 05:36:54;;;;;;;138.45;69.70;;;52.00;2227.20;;;;;;4818985;29;20038;-80
2022/03/22 05:40:08;;;;;;;125.75;66.72;;;76.80;2227.20;;;;;;4817316;29;20035;-80
2022/03/22 05:46:06;;;;;;;128.50;71.68;;;76.80;2227.20;;;;;;4817168;29;19930;-81
2022/03/22 05:49:36;;;;;;;136.43;77.85;;;51.70;2227.20;;;;;;4787461;29;20054;-82
2022/03/22 06:03:12;;;;;;;145.23;79.07;;;76.80;2227.20;;;;;;4791276;30;20084;-78
2022/03/22 06:06:35;;;;;;;148.60;79.72;;;52.10;2227.20;;;;;;4804355;29;20036;-81
2022/03/22 06:09:58;;;;;;;148.73;86.07;;;76.90;2227.20;;;;;;4806059;29;20077;-81
2022/03/22 06:16:36;;;;;;;158.90;92.07;;;77.30;2227.20;;;;;;4893369;29;20124;-82
2022/03/22 06:20:15;;;;;;;164.63;93.05;;;77.10;2227.20;;;;;;4891535;29;20056;-80
2022/03/22 06:23:54;;;;;;;430.02;243.98;;;77.50;2227.20;;;;;;4863540;29;20063;-81
2022/03/22 06:27:22;;;;;;;289.48;160.98;;;77.30;2227.20;;;;;;4889991;29;20052;-82
2022/03/22 06:30:40;;;;;;;305.23;174.00;;;77.10;2227.20;;;;;;4852936;29;20041;-83
2022/03/22 06:34:01;;;;;;;162.60;95.38;;;77.20;2227.20;;;;;;4787425;30;20034;-82
2022/03/22 06:37:13;;;;;;;202.18;112.57;;;77.50;2227.20;;;;;;4784174;30;20042;-82
2022/03/22 06:40:50;;;;;;;163.73;100.60;;;77.60;2227.20;;;;;;4749602;30;20130;-83
2022/03/22 06:47:46;;;;;;;148.00;96.65;;;102.70;2150.40;;;;;;4785866;30;20110;-83
2022/03/22 06:57:39;;;;;;;98.50;66.05;;;102.90;2099.20;;;;;;4783198;30;20112;-83
2022/03/22 07:14:13;;;;;;;47.72;30.05;;;128.20;1996.80;;;;;;4815458;29;20075;-83
2022/03/22 07:16:47;;;;;;;45.67;29.08;;;128.30;1996.80;;;;;;4808982;29;20048;-85
2022/03/22 07:19:34;;;;;;;41.28;26.05;;;128.40;1971.20;;;;;;4850463;29;20034;-84
2022/03/22 07:22:15;;;;;;;41.28;27.83;;;128.70;1971.20;;;;;;4834425;29;20101;-85
2022/03/22 07:24:47;;;;;;;41.65;26.83;;;128.80;1920.00;;;;;;4833724;29;20026;-83
2022/03/22 07:27:20;;;;;;;37.80;25.45;;;153.60;1920.00;;;;;;4853152;29;20030;-84
2022/03/22 07:30:16;;;;;;;44.58;28.63;;;153.70;1894.40;;;;;;4889205;29;20039;-84
2022/03/22 07:32:46;;;;;;;45.97;26.98;;;153.80;1894.40;;;;;;4924632;29;20089;-85
2022/03/22 07:35:17;;;;;;;51.58;31.80;;;153.90;1894.40;;;;;;4925640;29;20505;-85
2022/03/22 07:37:44;;;;;;;61.55;42.90;;;153.90;1868.80;;;;;;4910205;29;20054;-84
2022/03/22 07:40:12;;;;;;;57.03;33.90;;;154.00;1868.80;;;;;;4926095;29;20059;-87
2022/03/22 07:42:43;;;;;;;87.60;58.03;;;154.20;1868.80;;;;;;4926016;29;20052;-84
2022/03/22 07:45:30;;;;;;;62.28;40.75;;;154.40;1868.80;;;;;;4924602;29;20024;-83
2022/03/22 07:48:30;;;;;;;57.15;39.45;;;179.30;1843.20;;;;;;4925467;29;20076;-84
2022/03/22 07:55:04;;;;;;;55.28;36.40;;;179.60;1792.00;;;;;;4927186;29;20043;-84
2022/03/22 07:58:22;;;;;;;61.20;40.25;;;179.90;1792.00;;;;;;4848675;29;20040;-85
2022/03/22 08:06:07;;;;;;;59.47;37.60;;;205.00;1766.40;;;;;;4850296;29;20495;-86
2022/03/22 08:09:27;;;;;;;50.42;29.67;;;205.30;1740.80;;;;;;4848989;29;20049;-84
2022/03/22 08:13:14;;;;;;;41.20;26.45;;;205.50;1740.80;;;;;;4814000;29;20133;-86
2022/03/22 08:16:21;;;;;;;39.00;26.35;;;205.70;1715.20;;;;;;4778419;30;20032;-86
2022/03/22 08:23:04;;;;;;;45.17;28.63;;;230.80;1664.00;;;;;;4777419;30;20057;-86
2022/03/22 08:29:58;;;;;;;36.88;22.95;;;231.10;1638.40;;;;;;4792227;29;20110;-88
2022/03/22 08:33:31;;;;;;;39.58;23.70;;;231.20;1638.40;;;;;;4720939;30;20041;-86
2022/03/22 10:08:58;;;;;;;26.45;16.63;;;358.50;1382.40;;;;;;4787040;30;20122;-86
2022/03/22 10:12:54;;;;;;;22.33;15.20;;;333.50;1382.40;;;;;;4743894;30;20049;-85
2022/03/22 10:15:40;;;;;;;27.08;17.05;;;333.50;1382.40;;;;;;4765372;30;20459;-86
2022/03/22 10:18:46;;;;;;;22.38;14.60;;;333.40;1382.40;;;;;;4769496;30;20538;-86
2022/03/22 10:22:04;;;;;;;23.60;14.45;;;333.60;1382.40;;;;;;4771071;30;20027;-85
2022/03/22 10:25:21;;;;;;;19.80;13.88;;;333.70;1382.40;;;;;;4751469;30;20068;-85
2022/03/22 10:28:06;;;;;;;22.95;14.60;;;333.70;1382.40;;;;;;4829106;29;20028;-87
2022/03/22 10:31:39;;;;;;;17.98;13.75;;;333.70;1382.40;;;;;;4882165;29;20021;-86
2022/03/22 10:41:48;;;;;;;;;;;;;;;;;;;;;
2022/03/22 10:44:33;;;;;;;30.00;20.05;;;359.10;1356.80;;;;;;4766629;30;20039;-87
2022/03/22 10:47:36;;;;;;;;;;;;;;;;;;;;;
2022/03/22 10:51:05;;;;;;;;;;;;;;;;;;;;;
2022/03/22 10:54:12;;;;;;;19.88;14.15;;;359.20;1356.80;;;;;;4769048;29;20036;-86
2022/03/22 10:57:13;;;;;;;22.10;15.93;;;384.00;1331.20;;;;;;4807626;29;20022;-87
2022/03/22 11:03:29;;;;;;;23.90;18.10;;;384.60;1331.20;;;;;;4758594;30;20043;-86
2022/03/22 11:06:29;;;;;;;22.90;12.95;;;409.60;1356.80;;;;;;4881856;29;20017;-86
2022/03/22 11:09:53;;;;;;;22.90;14.00;;;409.60;1331.20;;;;;;4881672;29;20080;-86
2022/03/22 11:12:32;;;;;;;18.33;12.57;;;409.90;1331.20;;;;;;4891316;29;20029;-86
2022/03/22 11:15:19;;;;;;;30.35;17.90;;;409.90;1331.20;;;;;;4897123;29;20060;-87
2022/03/22 11:18:02;;;;;;;23.92;15.82;;;410.20;1331.20;;;;;;4897622;29;20025;-86
2022/03/22 11:21:00;;;;;;;20.63;13.23;;;410.30;1331.20;;;;;;4896971;29;20424;-86
2022/03/22 11:23:36;;;;;;;20.17;14.05;;;435.20;1305.60;;;;;;4885996;29;20132;-85
2022/03/22 11:26:34;;;;;;;19.13;12.45;;;435.50;1280.00;;;;;;4903380;29;20025;-87
2022/03/22 11:29:22;;;;;;;21.25;15.20;;;435.60;1280.00;;;;;;4904270;29;20040;-84
2022/03/22 11:35:46;;;;;;;18.08;12.15;;;435.90;1254.40;;;;;;4902035;29;20031;-84
2022/03/22 11:38:54;;;;;;;17.77;12.15;;;460.80;1280.00;;;;;;4879543;29;20029;-84
2022/03/22 11:44:38;;;;;;;21.33;12.10;;;461.10;1254.40;;;;;;4883372;29;20176;-87
2022/03/22 11:47:40;;;;;;;23.30;16.55;;;461.10;1228.80;;;;;;4882521;29;20032;-85
2022/03/22 11:50:19;;;;;;;22.92;16.55;;;461.10;1254.40;;;;;;4876785;29;20048;-87
2022/03/22 11:52:50;;;;;;;20.40;13.48;;;461.20;1228.80;;;;;;4882141;29;20093;-86
2022/03/22 11:55:30;;;;;;;16.85;12.25;;;461.40;1228.80;;;;;;4883140;29;20067;-86
2022/03/22 12:42:52;;;;;;;21.55;16.13;;;512.20;1152.00;;;;;;4824692;29;20047;-84
2022/03/22 14:19:10;;;;;;;31.27;17.95;;;487.30;1075.20;;;;;;4881048;29;20031;-83
2022/03/22 14:21:44;;;;;;;30.73;20.85;;;512.30;1126.40;;;;;;4879246;29;20120;-81
2022/03/22 14:24:31;;;;;;;26.33;18.58;;;512.20;1126.40;;;;;;4879392;29;20021;-82
2022/03/22 14:26:58;;;;;;;33.90;21.52;;;512.10;1126.40;;;;;;4878833;29;20428;-82
2022/03/22 14:29:27;;;;;;;25.98;18.95;;;487.30;1126.40;;;;;;4879086;29;20077;-80
2022/03/22 14:31:53;;;;;;;32.83;20.63;;;512.10;1126.40;;;;;;4880676;29;20383;-83
2022/03/22 14:37:07;;;;;;;29.00;20.77;;;512.00;1152.00;;;;;;4883493;29;20108;-85
2022/03/22 14:39:34;;;;;;;34.38;20.27;;;487.30;1152.00;;;;;;4884197;29;20433;-82
2022/03/22 14:42:06;;;;;;;32.90;21.48;;;487.20;1152.00;;;;;;4880340;29;20027;-85
2022/03/22 14:44:32;;;;;;;36.83;22.88;;;487.20;1152.00;;;;;;4880570;29;20036;-83
2022/03/22 14:46:58;;;;;;;37.55;25.35;;;487.00;1177.60;;;;;;4879428;29;20033;-86
2022/03/22 14:55:52;;;;;;;37.50;27.45;;;486.50;1177.60;;;;;;4880173;29;20027;-82
2022/03/22 15:01:05;;;;;;;34.33;26.23;;;461.50;1228.80;;;;;;4879660;29;20081;-84
2022/03/22 15:03:32;;;;;;;38.58;27.77;;;461.30;1228.80;;;;;;4879081;29;20043;-84
2022/03/22 15:06:03;;;;;;;37.90;26.45;;;461.10;1228.80;;;;;;4879272;29;20460;-88
2022/03/22 15:08:31;;;;;;;40.03;26.25;;;460.90;1280.00;;;;;;4878863;29;20423;-86
2022/03/22 15:10:57;;;;;;;42.03;29.17;;;436.10;1254.40;;;;;;4879108;29;20029;-84
2022/03/22 15:13:25;;;;;;;37.00;28.52;;;435.90;1280.00;;;;;;4878948;29;20486;-86
2022/03/22 15:15:52;;;;;;;41.08;26.85;;;435.60;1280.00;;;;;;4878620;29;20157;-87
2022/03/22 15:18:18;;;;;;;43.35;30.13;;;435.50;1280.00;;;;;;4878857;29;20116;-81
2022/03/22 15:20:47;;;;;;;42.63;29.40;;;435.30;1280.00;;;;;;4880064;29;20040;-84
2022/03/22 15:23:15;;;;;;;36.97;26.33;;;410.50;1305.60;;;;;;4879022;29;20033;-86
2022/03/22 15:25:46;;;;;;;38.55;26.08;;;410.50;1305.60;;;;;;4879198;29;20060;-85
2022/03/22 15:28:15;;;;;;;38.00;27.25;;;410.30;1305.60;;;;;;4879013;29;20481;-86
2022/03/22 15:33:44;;;;;;;48.92;31.00;;;410.00;1305.60;;;;;;4861631;29;20037;-89
2022/03/22 15:36:51;;;;;;;32.00;23.00;;;409.80;1331.20;;;;;;4876474;29;20543;-88
2022/03/22 15:45:32;;;;;;;37.63;27.38;;;384.90;1331.20;;;;;;4805144;29;20095;-91
2022/03/22 15:48:01;;;;;;;73.55;37.78;;;384.90;1356.80;;;;;;4804914;29;20125;-89
2022/03/22 15:50:55;;;;;;;73.05;44.97;;;384.90;1356.80;;;;;;4804785;29;20470;-88
2022/03/22 15:53:31;;;;;;;51.90;35.15;;;384.90;1356.80;;;;;;4836472;29;20036;-87
2022/03/22 15:59:18;;;;;;;52.67;36.72;;;384.60;1356.80;;;;;;4840672;29;20387;-89
2022/03/22 16:05:05;;;;;;;46.08;33.85;;;384.40;1382.40;;;;;;4837479;29;20029;-84
2022/03/22 16:11:20;;;;;;;47.08;33.03;;;384.10;1382.40;;;;;;4804260;29;20459;-91
2022/03/22 16:13:47;;;;;;;55.22;39.58;;;384.10;1382.40;;;;;;4875735;29;20120;-85
2022/03/22 16:16:23;;;;;;;45.13;33.28;;;384.00;1382.40;;;;;;4881606;29;20025;-84
2022/03/22 16:18:49;;;;;;;41.47;28.35;;;384.00;1408.00;;;;;;4881060;29;20022;-81
2022/03/22 16:21:15;;;;;;;45.47;33.45;;;359.30;1408.00;;;;;;4880917;29;20029;-81
2022/03/22 16:23:41;;;;;;;43.60;29.27;;;359.20;1408.00;;;;;;4881155;29;20048;-77
2022/03/22 16:39:27;;;;;;;38.38;25.30;;;358.80;1433.60;;;;;;4830625;29;20066;-84
2022/03/22 16:42:30;;;;;;;44.90;31.20;;;358.80;1433.60;;;;;;4881777;29;20380;-89
2022/03/22 16:52:47;;;;;;;45.10;31.48;;;358.60;1459.20;;;;;;4874336;29;20032;-87
2022/03/22 16:59:17;;;;;;;52.88;38.55;;;358.60;1459.20;;;;;;4843359;29;20088;-86
2022/03/22 17:02:04;;;;;;;;;;;;;;;;;;;;;
2022/03/22 17:05:01;;;;;;;44.67;30.38;;;358.50;1459.20;;;;;;4837684;29;20419;-86
2022/03/22 17:07:45;;;;;;;53.78;34.78;;;358.50;1459.20;;;;;;4828511;29;20045;-86
2022/03/22 17:13:46;;;;;;;68.30;36.42;;;333.70;1459.20;;;;;;4852246;29;20479;-86
2022/03/22 17:16:12;;;;;;;70.57;37.95;;;333.50;1484.80;;;;;;4881714;29;20021;-86
2022/03/22 17:18:42;;;;;;;71.50;36.80;;;333.70;1459.20;;;;;;4882338;29;20375;-86
2022/03/22 17:21:09;;;;;;;72.75;43.08;;;333.70;1459.20;;;;;;4883059;29;20357;-84
2022/03/22 17:23:39;;;;;;;63.17;41.45;;;333.60;1484.80;;;;;;4882317;29;20028;-86
2022/03/22 17:26:07;;;;;;;51.55;31.48;;;333.50;1484.80;;;;;;4868537;29;20380;-90
2022/03/22 17:28:43;;;;;;;38.78;25.58;;;333.50;1484.80;;;;;;4884189;29;20017;-88
2022/03/22 17:31:12;;;;;;;38.72;24.67;;;333.50;1484.80;;;;;;4883246;29;20565;-90
2022/03/22 17:33:38;;;;;;;53.17;34.67;;;333.60;1459.20;;;;;;4881352;29;20445;-87
2022/03/22 17:36:05;;;;;;;46.97;31.55;;;333.60;1484.80;;;;;;4881778;29;20029;-85
2022/03/22 17:38:34;;;;;;;41.90;26.02;;;333.50;1484.80;;;;;;4881513;29;20029;-87
2022/03/22 17:41:04;;;;;;;44.03;27.25;;;333.50;1484.80;;;;;;4881896;29;20024;-84
2022/03/22 17:43:33;;;;;;;45.58;29.77;;;333.50;1484.80;;;;;;4894970;29;20036;-85
2022/03/22 17:46:02;;;;;;;31.55;21.42;;;333.50;1484.80;;;;;;4905516;29;20029;-85
2022/03/22 17:48:41;;;;;;;37.60;24.88;;;333.50;1484.80;;;;;;4901437;29;20091;-84
2022/03/22 17:51:11;;;;;;;37.67;23.52;;;333.50;1484.80;;;;;;4893590;29;20060;-84
2022/03/22 17:53:44;;;;;;;33.10;22.52;;;333.40;1510.40;;;;;;4890246;29;20111;-84
2022/03/22 17:56:17;;;;;;;37.92;31.92;;;333.40;1510.40;;;;;;4881964;29;20029;-83
2022/03/22 17:58:46;;;;;;;31.38;22.88;;;333.40;1510.40;;;;;;4879821;29;20033;-84
2022/03/22 18:01:14;;;;;;;39.92;24.88;;;333.50;1510.40;;;;;;4879464;29;20574;-83
2022/03/22 18:03:41;;;;;;;39.08;25.63;;;333.50;1510.40;;;;;;4879562;29;20021;-84
2022/03/22 18:06:07;;;;;;;46.00;26.95;;;333.40;1510.40;;;;;;4879737;29;20033;-85
2022/03/22 18:08:33;;;;;;;47.80;26.67;;;333.50;1484.80;;;;;;4879646;29;20460;-83
2022/03/22 18:13:49;;;;;;;41.05;26.33;;;333.50;1510.40;;;;;;4880918;29;20047;-87
2022/03/22 18:16:14;;;;;;;42.13;27.60;;;333.40;1510.40;;;;;;4879507;29;20024;-82
2022/03/22 18:18:41;;;;;;;38.45;25.02;;;333.40;1510.40;;;;;;4879309;29;20028;-83
2022/03/22 18:21:09;;;;;;;38.85;22.45;;;333.40;1510.40;;;;;;4879492;29;20062;-85
2022/03/22 18:23:35;;;;;;;31.45;20.30;;;333.40;1510.40;;;;;;4879651;29;20044;-84
2022/03/22 18:26:02;;;;;;;32.47;21.73;;;333.30;1510.40;;;;;;4879092;29;20025;-83
2022/03/22 18:28:29;;;;;;;36.50;22.80;;;333.40;1510.40;;;;;;4879323;29;20029;-82
2022/03/22 18:31:01;;;;;;;;;;;333.40;1510.40;;;;;;4880349;29;20387;-83
2022/03/22 18:34:00;;;;;;;;;;;;;;;;;;;;;
2022/03/22 18:37:07;;;;;;;;;;;;;;;;;;;;;
2022/03/22 18:40:24;;;;;;;45.22;31.65;;;333.20;1536.00;;;;;;4879218;29;20023;-84
2022/03/22 18:43:45;;;;;;;93.93;52.28;;;333.30;1536.00;;;;;;4878824;29;20028;-85
2022/03/22 18:57:39;;;;;;;89.63;56.75;;;308.10;1587.20;;;;;;4750180;30;19913;-84
2022/03/22 19:01:33;;;;;;;120.45;76.00;;;308.10;1587.20;;;;;;4662700;30;20088;-83
2022/03/22 19:05:07;;;;;;;108.63;71.00;;;307.90;1612.80;;;;;;4680060;30;20030;-82
2022/03/22 19:29:12;;;;;;;;;;;;;;;;;;;;;
2022/03/22 19:35:54;;;;;;;65.53;48.83;;;282.20;1664.00;;;;;;4758349;29;20100;-82
2022/03/22 19:38:48;;;;;;;80.25;47.17;;;282.10;1664.00;;;;;;4817061;29;20071;-83
2022/03/22 19:41:21;;;;;;;96.10;75.10;;;282.20;1638.40;;;;;;4824337;29;20054;-84
2022/03/22 19:43:53;;;;;;;61.30;43.75;;;282.10;1664.00;;;;;;4825198;29;20038;-82
2022/03/22 19:46:35;;;;;;;83.97;52.15;;;282.10;1664.00;;;;;;4827891;29;20086;-84
2022/03/22 19:49:17;;;;;;;87.03;57.95;;;282.20;1638.40;;;;;;4881236;29;20033;-84
2022/03/22 19:52:05;;;;;;;57.13;40.58;;;282.20;1638.40;;;;;;4881792;29;20424;-82
2022/03/22 20:05:19;;;;;;;74.75;42.30;;;282.40;1638.40;;;;;;4882677;29;20482;-85
2022/03/22 20:16:18;;;;;;;117.00;65.70;;;282.00;1664.00;;;;;;4942207;23;20064;-78
2022/03/22 20:19:40;;;;;;;;;;;;;;;;;;;;;
2022/03/22 20:22:51;;;;;;;173.38;85.53;;;281.90;1689.60;;;;;;4824638;29;20054;-79
2022/03/22 20:25:39;;;;;;;114.32;54.63;;;256.60;1664.00;;;;;;4784227;29;20548;-80
2022/03/22 20:28:06;;;;;;;122.90;60.60;;;281.70;1689.60;;;;;;4824434;29;20450;-81
2022/03/22 20:30:35;;;;;;;94.50;53.78;;;281.70;1689.60;;;;;;4829487;29;20026;-79
2022/03/22 20:33:09;;;;;;;86.55;50.53;;;281.70;1715.20;;;;;;4865677;29;20029;-78
2022/03/22 20:35:47;;;;;;;145.45;94.65;;;281.80;1689.60;;;;;;4865630;29;20471;-79
2022/03/22 20:38:41;;;;;;;119.82;77.95;;;281.70;1715.20;;;;;;4865146;29;20371;-78
2022/03/22 20:41:07;;;;;;;118.32;74.75;;;281.70;1740.80;;;;;;4880294;29;20387;-77
2022/03/22 20:43:36;;;;;;;117.80;77.43;;;256.90;1715.20;;;;;;4865298;29;20475;-77
2022/03/22 20:46:06;;;;;;;127.60;93.10;;;256.90;1715.20;;;;;;4865019;29;20383;-78
2022/03/22 20:48:32;;;;;;;173.90;114.57;;;256.60;1740.80;;;;;;4864990;29;20028;-79
2022/03/22 20:50:59;;;;;;;165.95;108.43;;;256.60;1740.80;;;;;;4863339;29;20387;-79
2022/03/22 20:53:40;;;;;;;160.38;103.18;;;256.60;1740.80;;;;;;4865034;29;20025;-77
2022/03/22 21:04:00;;;;;;;;;;;;;;;;;;;;;
2022/03/22 21:06:47;;;;;;;186.55;104.03;;;256.30;1766.40;;;;;;4841988;29;20472;-77
2022/03/22 21:23:05;;;;;;;158.18;93.18;;;256.10;1792.00;;;;;;5378461;23;20143;-77
2022/03/22 21:25:31;;;;;;;176.73;105.70;;;256.20;1766.40;;;;;;4898789;29;20037;-76
2022/03/22 21:38:09;;;;;;;172.40;101.80;;;231.30;1817.60;;;;;;4845723;29;20052;-78
2022/03/22 21:40:45;;;;;;;227.27;126.13;;;231.10;1843.20;;;;;;4882637;29;20119;-78
2022/03/22 21:43:40;;;;;;;223.93;127.47;;;231.00;1843.20;;;;;;4880442;29;20033;-78
2022/03/22 21:46:46;;;;;;;187.98;104.90;;;231.00;1843.20;;;;;;4882855;29;20021;-79
2022/03/22 21:55:59;;;;;;;135.15;71.55;;;230.90;1843.20;;;;;;4899065;29;20024;-78
2022/03/22 21:58:25;;;;;;;135.52;65.90;;;230.90;1843.20;;;;;;4882579;29;20104;-78
2022/03/22 22:00:58;;;;;;;114.38;53.60;;;230.80;1843.20;;;;;;4881910;29;20080;-79
2022/03/22 22:03:32;;;;;;;;;;;230.90;1817.60;;;;;;4882971;29;20039;-80
2022/03/22 22:06:05;;;;;;;208.15;116.60;;;230.90;1843.20;;;;;;4898077;29;19907;-77
2022/03/22 22:08:32;;;;;;;240.85;130.98;;;230.90;1843.20;;;;;;4882346;29;20076;-78
2022/03/22 22:10:59;;;;;;;256.27;138.80;;;231.00;1843.20;;;;;;4881753;29;20067;-78
2022/03/22 22:13:25;;;;;;;238.73;128.30;;;231.00;1843.20;;;;;;4882362;29;20029;-77
2022/03/22 22:15:51;;;;;;;247.88;135.38;;;231.10;1843.20;;;;;;4882025;29;20039;-75
2022/03/22 22:18:17;;;;;;;277.55;151.27;;;231.00;1843.20;;;;;;4882212;29;20028;-76
2022/03/22 22:20:49;;;;;;;261.60;140.63;;;230.70;1894.40;;;;;;4882219;29;20032;-78
2022/03/22 22:23:15;;;;;;;207.75;114.50;;;230.80;1894.40;;;;;;4881519;29;20517;-78
2022/03/22 22:25:57;;;;;;;228.07;131.27;;;230.80;1868.80;;;;;;4882242;29;20063;-80
2022/03/22 22:28:22;;;;;;;212.82;120.38;;;230.60;1894.40;;;;;;4882070;29;20028;-79
2022/03/22 22:30:48;;;;;;;200.98;115.50;;;230.70;1894.40;;;;;;4881624;29;20040;-78
2022/03/22 22:35:58;;;;;;;140.27;84.65;;;230.70;1894.40;;;;;;4899054;29;20103;-78
2022/03/22 22:38:24;;;;;;;136.75;85.35;;;230.70;1894.40;;;;;;4882503;29;20028;-80
2022/03/22 22:40:50;;;;;;;132.85;75.47;;;230.80;1894.40;;;;;;4881959;29;20127;-78
2022/03/22 22:43:16;;;;;;;131.50;81.00;;;230.70;1894.40;;;;;;4901290;29;20013;-78
2022/03/22 22:45:42;;;;;;;125.55;76.88;;;230.60;1894.40;;;;;;4896931;29;20029;-78
2022/03/22 22:48:07;;;;;;;136.63;82.68;;;230.60;1894.40;;;;;;4884353;29;20356;-79
2022/03/22 22:53:31;;;;;;;184.25;106.07;;;230.60;1894.40;;;;;;4898098;29;20139;-75
2022/03/22 22:55:57;;;;;;;156.40;95.53;;;230.50;1894.40;;;;;;4881521;29;20027;-76
2022/03/22 22:58:43;;;;;;;180.73;108.38;;;230.60;1894.40;;;;;;4881254;29;20048;-79
2022/03/22 23:01:58;;;;;;;172.52;100.72;;;230.50;1920.00;;;;;;4895614;29;20154;-79
2022/03/22 23:04:23;;;;;;;157.30;95.97;;;230.50;1920.00;;;;;;4871808;29;20071;-77
2022/03/22 23:13:06;;;;;;;;;;;;;;;;;;;;;
2022/03/22 23:15:32;;;;;;;160.65;88.53;;;205.60;1920.00;;;;;;4898289;29;20024;-78
2022/03/22 23:18:27;;;;;;;134.80;73.57;;;205.60;1945.60;;;;;;4881038;29;20148;-76